Terminal Aerodrome Forecast
Issued by NWS

Home | Current Version | Previous Version | Text Only | Print | Product List | Glossary On
Versions: 1 2 3 4 5 6 7 8 9 10 11 12 13 14 15 16 17 18 19
000
FTUS43 KLSX 171137
TAFSUS
TAF
KSUS 171137Z 1712/1812 14011KT P6SM SCT006 OVC060
      TEMPO 1712/1715 5SM BR BKN006
     FM171500 14012G20KT P6SM BKN010
     FM171800 16015G25KT P6SM OVC020
     FM180200 17011G19KT P6SM OVC015
     FM180400 18010G18KT P6SM VCTS OVC020CB
     FM181000 20009G17KT P6SM -SHRA OVC020=

USA.gov is the U.S. government's official web portal to all federal, state and local government web resources and services.